sensor_id;sensor_type;location;lat;lon;timestamp;P1;durP1;ratioP1;P2;durP2;ratioP2
61389;SDS011;47260;48.274;19.814;2023-05-07T00:00:26;5.53;;;5.00;;
61389;SDS011;47260;48.274;19.814;2023-05-07T00:01:57;8.05;;;5.15;;
61389;SDS011;47260;48.274;19.814;2023-05-07T00:03:30;7.68;;;5.43;;
61389;SDS011;47260;48.274;19.814;2023-05-07T00:05:01;6.93;;;4.90;;
61389;SDS011;47260;48.274;19.814;2023-05-07T00:06:33;6.43;;;5.82;;
61389;SDS011;47260;48.274;19.814;2023-05-07T00:08:04;7.20;;;5.78;;
61389;SDS011;47260;48.274;19.814;2023-05-07T00:09:36;5.70;;;5.13;;
61389;SDS011;47260;48.274;19.814;2023-05-07T00:11:07;6.68;;;5.90;;
61389;SDS011;47260;48.274;19.814;2023-05-07T00:12:39;6.55;;;5.80;;
61389;SDS011;47260;48.274;19.814;2023-05-07T00:14:10;6.35;;;5.75;;
61389;SDS011;47260;48.274;19.814;2023-05-07T00:15:42;8.05;;;6.72;;
61389;SDS011;47260;48.274;19.814;2023-05-07T00:17:13;8.20;;;5.70;;
61389;SDS011;47260;48.274;19.814;2023-05-07T00:18:46;8.68;;;6.35;;
61389;SDS011;47260;48.274;19.814;2023-05-07T00:20:18;7.43;;;6.60;;
61389;SDS011;47260;48.274;19.814;2023-05-07T00:21:50;7.32;;;5.97;;
61389;SDS011;47260;48.274;19.814;2023-05-07T00:23:23;6.38;;;5.60;;
61389;SDS011;47260;48.274;19.814;2023-05-07T00:24:55;6.30;;;5.57;;
61389;SDS011;47260;48.274;19.814;2023-05-07T00:26:26;8.15;;;5.60;;
61389;SDS011;47260;48.274;19.814;2023-05-07T00:27:58;6.80;;;6.03;;
61389;SDS011;47260;48.274;19.814;2023-05-07T00:29:33;6.45;;;4.90;;
61389;SDS011;47260;48.274;19.814;2023-05-07T00:31:06;6.03;;;5.43;;
61389;SDS011;47260;48.274;19.814;2023-05-07T00:32:38;7.00;;;5.20;;
61389;SDS011;47260;48.274;19.814;2023-05-07T00:34:11;6.43;;;5.75;;
61389;SDS011;47260;48.274;19.814;2023-05-07T00:35:43;5.72;;;5.15;;
61389;SDS011;47260;48.274;19.814;2023-05-07T00:37:15;6.85;;;5.57;;
61389;SDS011;47260;48.274;19.814;2023-05-07T00:38:46;7.50;;;6.13;;
61389;SDS011;47260;48.274;19.814;2023-05-07T00:40:17;6.85;;;6.13;;
61389;SDS011;47260;48.274;19.814;2023-05-07T00:41:48;6.90;;;6.20;;
61389;SDS011;47260;48.274;19.814;2023-05-07T00:43:21;8.85;;;5.82;;
61389;SDS011;47260;48.274;19.814;2023-05-07T00:44:53;8.20;;;6.60;;
61389;SDS011;47260;48.274;19.814;2023-05-07T00:46:25;6.72;;;5.93;;
61389;SDS011;47260;48.274;19.814;2023-05-07T00:47:57;7.10;;;6.00;;
61389;SDS011;47260;48.274;19.814;2023-05-07T00:49:35;7.45;;;6.45;;
61389;SDS011;47260;48.274;19.814;2023-05-07T00:51:10;8.95;;;5.93;;
61389;SDS011;47260;48.274;19.814;2023-05-07T00:52:42;7.97;;;5.45;;
61389;SDS011;47260;48.274;19.814;2023-05-07T00:54:13;6.85;;;5.18;;
61389;SDS011;47260;48.274;19.814;2023-05-07T00:55:45;10.02;;;5.70;;
61389;SDS011;47260;48.274;19.814;2023-05-07T00:57:17;7.63;;;5.03;;
61389;SDS011;47260;48.274;19.814;2023-05-07T00:58:48;6.82;;;5.25;;
61389;SDS011;47260;48.274;19.814;2023-05-07T01:00:20;7.10;;;5.95;;
61389;SDS011;47260;48.274;19.814;2023-05-07T01:01:51;6.22;;;5.40;;
61389;SDS011;47260;48.274;19.814;2023-05-07T01:03:22;6.85;;;5.53;;
61389;SDS011;47260;48.274;19.814;2023-05-07T01:04:56;6.13;;;5.53;;
61389;SDS011;47260;48.274;19.814;2023-05-07T01:06:26;11.48;;;6.03;;
61389;SDS011;47260;48.274;19.814;2023-05-07T01:08:01;8.20;;;6.03;;
61389;SDS011;47260;48.274;19.814;2023-05-07T01:09:34;7.03;;;6.10;;
61389;SDS011;47260;48.274;19.814;2023-05-07T01:11:07;6.95;;;5.55;;
61389;SDS011;47260;48.274;19.814;2023-05-07T01:12:38;6.97;;;5.13;;
61389;SDS011;47260;48.274;19.814;2023-05-07T01:14:11;6.63;;;5.20;;
61389;SDS011;47260;48.274;19.814;2023-05-07T01:15:42;5.43;;;4.65;;
61389;SDS011;47260;48.274;19.814;2023-05-07T01:17:14;6.05;;;4.90;;
61389;SDS011;47260;48.274;19.814;2023-05-07T01:18:46;4.75;;;4.30;;
61389;SDS011;47260;48.274;19.814;2023-05-07T01:20:19;5.40;;;4.80;;
61389;SDS011;47260;48.274;19.814;2023-05-07T01:21:54;7.72;;;4.65;;
61389;SDS011;47260;48.274;19.814;2023-05-07T01:23:34;6.47;;;4.43;;
61389;SDS011;47260;48.274;19.814;2023-05-07T01:25:06;5.53;;;4.65;;
61389;SDS011;47260;48.274;19.814;2023-05-07T01:26:41;4.97;;;4.53;;
61389;SDS011;47260;48.274;19.814;2023-05-07T01:28:12;4.95;;;4.43;;
61389;SDS011;47260;48.274;19.814;2023-05-07T01:29:46;5.65;;;4.28;;
61389;SDS011;47260;48.274;19.814;2023-05-07T01:31:17;5.05;;;4.55;;
61389;SDS011;47260;48.274;19.814;2023-05-07T01:32:51;9.80;;;4.75;;
61389;SDS011;47260;48.274;19.814;2023-05-07T01:34:28;5.68;;;5.13;;
61389;SDS011;47260;48.274;19.814;2023-05-07T01:36:03;5.40;;;4.90;;
61389;SDS011;47260;48.274;19.814;2023-05-07T01:37:38;6.88;;;5.30;;
61389;SDS011;47260;48.274;19.814;2023-05-07T01:39:12;5.60;;;4.82;;
61389;SDS011;47260;48.274;19.814;2023-05-07T01:40:44;4.88;;;4.20;;
61389;SDS011;47260;48.274;19.814;2023-05-07T01:42:16;6.75;;;4.90;;
61389;SDS011;47260;48.274;19.814;2023-05-07T01:43:47;5.75;;;4.97;;
61389;SDS011;47260;48.274;19.814;2023-05-07T01:45:19;5.22;;;4.72;;
61389;SDS011;47260;48.274;19.814;2023-05-07T01:46:51;5.03;;;4.50;;
61389;SDS011;47260;48.274;19.814;2023-05-07T01:48:22;6.57;;;5.18;;
61389;SDS011;47260;48.274;19.814;2023-05-07T01:49:55;6.45;;;4.97;;
61389;SDS011;47260;48.274;19.814;2023-05-07T01:51:26;6.47;;;4.60;;
61389;SDS011;47260;48.274;19.814;2023-05-07T01:52:59;5.70;;;4.90;;
61389;SDS011;47260;48.274;19.814;2023-05-07T01:54:34;6.93;;;5.82;;
61389;SDS011;47260;48.274;19.814;2023-05-07T01:56:06;6.35;;;4.90;;
61389;SDS011;47260;48.274;19.814;2023-05-07T01:57:40;5.60;;;4.80;;
61389;SDS011;47260;48.274;19.814;2023-05-07T01:59:11;5.40;;;4.50;;
61389;SDS011;47260;48.274;19.814;2023-05-07T02:00:43;5.20;;;4.68;;
61389;SDS011;47260;48.274;19.814;2023-05-07T02:02:15;7.45;;;4.97;;
61389;SDS011;47260;48.274;19.814;2023-05-07T02:03:48;9.80;;;5.07;;
61389;SDS011;47260;48.274;19.814;2023-05-07T02:05:26;6.95;;;4.65;;
61389;SDS011;47260;48.274;19.814;2023-05-07T02:07:03;6.18;;;4.68;;
61389;SDS011;47260;48.274;19.814;2023-05-07T02:08:35;5.75;;;5.00;;
61389;SDS011;47260;48.274;19.814;2023-05-07T02:10:08;6.45;;;4.97;;
61389;SDS011;47260;48.274;19.814;2023-05-07T02:11:41;6.90;;;5.05;;
61389;SDS011;47260;48.274;19.814;2023-05-07T02:13:13;7.88;;;5.50;;
61389;SDS011;47260;48.274;19.814;2023-05-07T02:14:44;6.45;;;5.13;;
61389;SDS011;47260;48.274;19.814;2023-05-07T02:16:16;5.75;;;5.15;;
61389;SDS011;47260;48.274;19.814;2023-05-07T02:18:00;6.00;;;5.40;;
61389;SDS011;47260;48.274;19.814;2023-05-07T02:19:33;7.07;;;5.18;;
61389;SDS011;47260;48.274;19.814;2023-05-07T02:21:04;5.60;;;4.65;;
61389;SDS011;47260;48.274;19.814;2023-05-07T02:22:36;7.47;;;5.18;;
61389;SDS011;47260;48.274;19.814;2023-05-07T02:24:08;6.43;;;5.20;;
61389;SDS011;47260;48.274;19.814;2023-05-07T02:25:41;5.80;;;4.72;;
61389;SDS011;47260;48.274;19.814;2023-05-07T02:27:13;6.20;;;5.45;;
61389;SDS011;47260;48.274;19.814;2023-05-07T02:28:45;6.95;;;5.70;;
61389;SDS011;47260;48.274;19.814;2023-05-07T02:30:17;7.50;;;4.63;;
61389;SDS011;47260;48.274;19.814;2023-05-07T02:31:48;6.00;;;5.40;;
61389;SDS011;47260;48.274;19.814;2023-05-07T02:33:21;6.68;;;5.47;;
61389;SDS011;47260;48.274;19.814;2023-05-07T02:34:52;8.85;;;5.75;;
61389;SDS011;47260;48.274;19.814;2023-05-07T02:36:24;6.53;;;4.97;;
61389;SDS011;47260;48.274;19.814;2023-05-07T02:38:06;6.97;;;5.38;;
61389;SDS011;47260;48.274;19.814;2023-05-07T02:39:38;6.65;;;5.00;;
61389;SDS011;47260;48.274;19.814;2023-05-07T02:41:11;5.43;;;4.60;;
61389;SDS011;47260;48.274;19.814;2023-05-07T02:42:42;6.60;;;5.20;;
61389;SDS011;47260;48.274;19.814;2023-05-07T02:44:13;5.13;;;4.63;;
61389;SDS011;47260;48.274;19.814;2023-05-07T02:45:45;5.70;;;5.20;;
61389;SDS011;47260;48.274;19.814;2023-05-07T02:47:18;7.30;;;5.05;;
61389;SDS011;47260;48.274;19.814;2023-05-07T02:48:50;7.07;;;5.25;;
61389;SDS011;47260;48.274;19.814;2023-05-07T02:50:22;5.28;;;4.78;;
61389;SDS011;47260;48.274;19.814;2023-05-07T02:51:53;6.03;;;5.05;;
61389;SDS011;47260;48.274;19.814;2023-05-07T02:53:27;7.10;;;4.82;;
61389;SDS011;47260;48.274;19.814;2023-05-07T02:54:59;6.80;;;4.93;;
61389;SDS011;47260;48.274;19.814;2023-05-07T02:56:34;6.07;;;5.20;;
61389;SDS011;47260;48.274;19.814;2023-05-07T02:58:05;6.40;;;5.07;;
61389;SDS011;47260;48.274;19.814;2023-05-07T02:59:39;6.60;;;5.20;;
61389;SDS011;47260;48.274;19.814;2023-05-07T03:01:10;8.35;;;5.40;;
61389;SDS011;47260;48.274;19.814;2023-05-07T03:02:54;5.18;;;4.68;;
61389;SDS011;47260;48.274;19.814;2023-05-07T03:04:26;7.47;;;5.28;;
61389;SDS011;47260;48.274;19.814;2023-05-07T03:05:58;5.57;;;5.05;;
61389;SDS011;47260;48.274;19.814;2023-05-07T03:07:29;5.45;;;4.95;;
61389;SDS011;47260;48.274;19.814;2023-05-07T03:09:01;6.25;;;4.93;;
61389;SDS011;47260;48.274;19.814;2023-05-07T03:10:33;5.30;;;4.63;;
61389;SDS011;47260;48.274;19.814;2023-05-07T03:12:07;5.65;;;4.85;;
61389;SDS011;47260;48.274;19.814;2023-05-07T03:13:38;7.55;;;5.32;;
61389;SDS011;47260;48.274;19.814;2023-05-07T03:15:09;5.20;;;4.65;;
61389;SDS011;47260;48.274;19.814;2023-05-07T03:16:42;6.53;;;5.32;;
61389;SDS011;47260;48.274;19.814;2023-05-07T03:18:14;5.65;;;4.72;;
61389;SDS011;47260;48.274;19.814;2023-05-07T03:19:45;5.50;;;4.93;;
61389;SDS011;47260;48.274;19.814;2023-05-07T03:21:16;6.13;;;5.20;;
61389;SDS011;47260;48.274;19.814;2023-05-07T03:22:47;5.47;;;4.68;;
61389;SDS011;47260;48.274;19.814;2023-05-07T03:24:19;10.23;;;5.10;;
61389;SDS011;47260;48.274;19.814;2023-05-07T03:25:50;7.30;;;5.65;;
61389;SDS011;47260;48.274;19.814;2023-05-07T03:27:23;5.75;;;5.20;;
61389;SDS011;47260;48.274;19.814;2023-05-07T03:28:54;6.22;;;4.80;;
61389;SDS011;47260;48.274;19.814;2023-05-07T03:30:26;5.50;;;4.18;;
61389;SDS011;47260;48.274;19.814;2023-05-07T03:31:57;6.22;;;5.00;;
61389;SDS011;47260;48.274;19.814;2023-05-07T03:33:29;8.65;;;4.88;;
61389;SDS011;47260;48.274;19.814;2023-05-07T03:35:00;6.03;;;5.43;;
61389;SDS011;47260;48.274;19.814;2023-05-07T03:36:31;5.60;;;4.85;;
61389;SDS011;47260;48.274;19.814;2023-05-07T03:38:03;7.32;;;5.13;;
61389;SDS011;47260;48.274;19.814;2023-05-07T03:39:38;7.80;;;4.50;;
61389;SDS011;47260;48.274;19.814;2023-05-07T03:41:09;5.95;;;4.55;;
61389;SDS011;47260;48.274;19.814;2023-05-07T03:42:42;5.45;;;4.47;;
61389;SDS011;47260;48.274;19.814;2023-05-07T03:44:15;5.47;;;4.97;;
61389;SDS011;47260;48.274;19.814;2023-05-07T03:45:46;6.43;;;5.28;;
61389;SDS011;47260;48.274;19.814;2023-05-07T03:47:23;5.47;;;4.93;;
61389;SDS011;47260;48.274;19.814;2023-05-07T03:48:54;13.52;;;5.32;;
61389;SDS011;47260;48.274;19.814;2023-05-07T03:50:26;5.95;;;4.93;;
61389;SDS011;47260;48.274;19.814;2023-05-07T03:51:57;7.72;;;4.93;;
61389;SDS011;47260;48.274;19.814;2023-05-07T03:53:29;5.50;;;4.90;;
61389;SDS011;47260;48.274;19.814;2023-05-07T03:55:01;5.30;;;4.80;;
61389;SDS011;47260;48.274;19.814;2023-05-07T03:56:33;8.15;;;4.97;;
61389;SDS011;47260;48.274;19.814;2023-05-07T03:58:07;6.35;;;5.63;;
61389;SDS011;47260;48.274;19.814;2023-05-07T03:59:38;5.00;;;4.55;;
61389;SDS011;47260;48.274;19.814;2023-05-07T04:01:11;5.32;;;4.82;;
61389;SDS011;47260;48.274;19.814;2023-05-07T04:02:43;6.75;;;5.40;;
61389;SDS011;47260;48.274;19.814;2023-05-07T04:04:14;8.38;;;5.20;;
61389;SDS011;47260;48.274;19.814;2023-05-07T04:05:46;5.28;;;4.30;;
61389;SDS011;47260;48.274;19.814;2023-05-07T04:07:18;5.55;;;5.00;;
61389;SDS011;47260;48.274;19.814;2023-05-07T04:08:53;5.55;;;4.80;;
61389;SDS011;47260;48.274;19.814;2023-05-07T04:10:25;5.38;;;4.88;;
61389;SDS011;47260;48.274;19.814;2023-05-07T04:11:59;6.30;;;5.60;;
61389;SDS011;47260;48.274;19.814;2023-05-07T04:13:32;6.25;;;5.32;;
61389;SDS011;47260;48.274;19.814;2023-05-07T04:15:07;5.30;;;4.80;;
61389;SDS011;47260;48.274;19.814;2023-05-07T04:16:39;5.50;;;5.00;;
61389;SDS011;47260;48.274;19.814;2023-05-07T04:18:12;6.20;;;5.03;;
61389;SDS011;47260;48.274;19.814;2023-05-07T04:19:45;6.57;;;5.28;;
61389;SDS011;47260;48.274;19.814;2023-05-07T04:21:19;6.38;;;5.70;;
61389;SDS011;47260;48.274;19.814;2023-05-07T04:22:54;7.60;;;5.50;;
61389;SDS011;47260;48.274;19.814;2023-05-07T04:24:25;7.28;;;5.57;;
61389;SDS011;47260;48.274;19.814;2023-05-07T04:25:57;6.35;;;5.28;;
61389;SDS011;47260;48.274;19.814;2023-05-07T04:27:44;8.13;;;5.63;;
61389;SDS011;47260;48.274;19.814;2023-05-07T04:29:18;6.18;;;5.10;;
61389;SDS011;47260;48.274;19.814;2023-05-07T04:30:51;6.05;;;5.45;;
61389;SDS011;47260;48.274;19.814;2023-05-07T04:32:22;6.55;;;5.68;;
61389;SDS011;47260;48.274;19.814;2023-05-07T04:33:56;5.80;;;4.95;;
61389;SDS011;47260;48.274;19.814;2023-05-07T04:35:27;6.38;;;5.78;;
61389;SDS011;47260;48.274;19.814;2023-05-07T04:36:59;8.23;;;6.22;;
61389;SDS011;47260;48.274;19.814;2023-05-07T04:38:31;5.65;;;5.03;;
61389;SDS011;47260;48.274;19.814;2023-05-07T04:40:03;6.53;;;5.35;;
61389;SDS011;47260;48.274;19.814;2023-05-07T04:41:36;5.63;;;5.13;;
61389;SDS011;47260;48.274;19.814;2023-05-07T04:43:07;5.13;;;4.60;;
61389;SDS011;47260;48.274;19.814;2023-05-07T04:44:47;7.88;;;4.78;;
61389;SDS011;47260;48.274;19.814;2023-05-07T04:46:23;8.27;;;4.70;;
61389;SDS011;47260;48.274;19.814;2023-05-07T04:47:54;7.72;;;4.93;;
61389;SDS011;47260;48.274;19.814;2023-05-07T04:49:26;7.60;;;4.80;;
61389;SDS011;47260;48.274;19.814;2023-05-07T04:50:59;5.68;;;5.07;;
61389;SDS011;47260;48.274;19.814;2023-05-07T04:52:30;5.63;;;4.57;;
61389;SDS011;47260;48.274;19.814;2023-05-07T04:54:03;6.38;;;5.78;;
61389;SDS011;47260;48.274;19.814;2023-05-07T04:55:35;5.88;;;5.30;;
61389;SDS011;47260;48.274;19.814;2023-05-07T04:57:07;5.68;;;4.97;;
61389;SDS011;47260;48.274;19.814;2023-05-07T04:58:39;6.07;;;5.10;;
61389;SDS011;47260;48.274;19.814;2023-05-07T05:00:13;5.65;;;4.88;;
61389;SDS011;47260;48.274;19.814;2023-05-07T05:01:48;6.38;;;4.32;;
61389;SDS011;47260;48.274;19.814;2023-05-07T05:03:20;5.30;;;4.80;;
61389;SDS011;47260;48.274;19.814;2023-05-07T05:04:52;5.57;;;4.95;;
61389;SDS011;47260;48.274;19.814;2023-05-07T05:06:22;5.57;;;4.85;;
61389;SDS011;47260;48.274;19.814;2023-05-07T05:07:55;5.55;;;5.00;;
61389;SDS011;47260;48.274;19.814;2023-05-07T05:09:28;6.57;;;5.15;;
61389;SDS011;47260;48.274;19.814;2023-05-07T05:11:00;5.75;;;5.05;;
61389;SDS011;47260;48.274;19.814;2023-05-07T05:12:31;5.25;;;4.75;;
61389;SDS011;47260;48.274;19.814;2023-05-07T05:14:04;4.85;;;4.43;;
61389;SDS011;47260;48.274;19.814;2023-05-07T05:15:37;5.72;;;5.03;;
61389;SDS011;47260;48.274;19.814;2023-05-07T05:17:09;4.50;;;4.10;;
61389;SDS011;47260;48.274;19.814;2023-05-07T05:18:41;4.43;;;4.03;;
61389;SDS011;47260;48.274;19.814;2023-05-07T05:20:16;5.35;;;4.85;;
61389;SDS011;47260;48.274;19.814;2023-05-07T05:21:48;5.90;;;5.05;;
61389;SDS011;47260;48.274;19.814;2023-05-07T05:23:20;5.72;;;5.22;;
61389;SDS011;47260;48.274;19.814;2023-05-07T05:24:52;5.05;;;4.55;;
61389;SDS011;47260;48.274;19.814;2023-05-07T05:26:26;5.45;;;4.90;;
61389;SDS011;47260;48.274;19.814;2023-05-07T05:27:57;7.30;;;5.90;;
61389;SDS011;47260;48.274;19.814;2023-05-07T05:29:28;5.80;;;5.15;;
61389;SDS011;47260;48.274;19.814;2023-05-07T05:31:04;6.22;;;5.57;;
61389;SDS011;47260;48.274;19.814;2023-05-07T05:32:39;10.60;;;5.72;;
61389;SDS011;47260;48.274;19.814;2023-05-07T05:34:10;7.57;;;6.05;;
61389;SDS011;47260;48.274;19.814;2023-05-07T05:35:42;6.47;;;5.60;;
61389;SDS011;47260;48.274;19.814;2023-05-07T05:37:16;7.70;;;5.60;;
61389;SDS011;47260;48.274;19.814;2023-05-07T05:38:48;7.00;;;5.53;;
61389;SDS011;47260;48.274;19.814;2023-05-07T05:40:20;6.40;;;5.43;;
61389;SDS011;47260;48.274;19.814;2023-05-07T05:41:52;6.00;;;5.32;;
61389;SDS011;47260;48.274;19.814;2023-05-07T05:43:24;7.25;;;5.80;;
61389;SDS011;47260;48.274;19.814;2023-05-07T05:44:55;5.60;;;4.75;;
61389;SDS011;47260;48.274;19.814;2023-05-07T05:46:29;6.10;;;5.47;;
61389;SDS011;47260;48.274;19.814;2023-05-07T05:48:01;6.00;;;5.13;;
61389;SDS011;47260;48.274;19.814;2023-05-07T05:49:33;5.88;;;5.15;;
61389;SDS011;47260;48.274;19.814;2023-05-07T05:51:07;5.43;;;4.78;;
61389;SDS011;47260;48.274;19.814;2023-05-07T05:52:39;7.40;;;5.43;;
61389;SDS011;47260;48.274;19.814;2023-05-07T05:54:12;6.95;;;6.25;;
61389;SDS011;47260;48.274;19.814;2023-05-07T05:55:43;6.00;;;5.40;;
61389;SDS011;47260;48.274;19.814;2023-05-07T05:57:16;6.38;;;5.60;;
61389;SDS011;47260;48.274;19.814;2023-05-07T05:58:49;6.38;;;5.53;;
61389;SDS011;47260;48.274;19.814;2023-05-07T06:00:20;6.25;;;5.38;;
61389;SDS011;47260;48.274;19.814;2023-05-07T06:02:02;6.68;;;5.97;;
61389;SDS011;47260;48.274;19.814;2023-05-07T06:03:34;6.18;;;5.50;;
61389;SDS011;47260;48.274;19.814;2023-05-07T06:05:09;10.05;;;6.05;;
61389;SDS011;47260;48.274;19.814;2023-05-07T06:06:41;6.20;;;5.60;;
61389;SDS011;47260;48.274;19.814;2023-05-07T06:08:13;6.40;;;5.60;;
61389;SDS011;47260;48.274;19.814;2023-05-07T06:09:44;5.93;;;5.35;;
61389;SDS011;47260;48.274;19.814;2023-05-07T06:11:16;8.40;;;6.57;;
61389;SDS011;47260;48.274;19.814;2023-05-07T06:12:50;6.17;;;5.57;;
61389;SDS011;47260;48.274;19.814;2023-05-07T06:14:22;5.78;;;5.25;;
61389;SDS011;47260;48.274;19.814;2023-05-07T06:15:53;6.05;;;5.45;;
61389;SDS011;47260;48.274;19.814;2023-05-07T06:17:26;5.93;;;5.10;;
61389;SDS011;47260;48.274;19.814;2023-05-07T06:18:58;6.60;;;4.72;;
61389;SDS011;47260;48.274;19.814;2023-05-07T06:20:30;5.57;;;4.97;;
61389;SDS011;47260;48.274;19.814;2023-05-07T06:22:03;7.60;;;5.25;;
61389;SDS011;47260;48.274;19.814;2023-05-07T06:23:37;5.40;;;4.90;;
61389;SDS011;47260;48.274;19.814;2023-05-07T06:25:11;5.00;;;4.50;;
61389;SDS011;47260;48.274;19.814;2023-05-07T06:26:43;5.60;;;4.97;;
61389;SDS011;47260;48.274;19.814;2023-05-07T06:28:15;5.07;;;4.57;;
61389;SDS011;47260;48.274;19.814;2023-05-07T06:29:47;6.18;;;5.22;;
61389;SDS011;47260;48.274;19.814;2023-05-07T06:31:21;7.68;;;6.28;;
61389;SDS011;47260;48.274;19.814;2023-05-07T06:33:05;5.60;;;5.10;;
61389;SDS011;47260;48.274;19.814;2023-05-07T06:34:37;5.35;;;4.85;;
61389;SDS011;47260;48.274;19.814;2023-05-07T06:36:10;5.82;;;5.32;;
61389;SDS011;47260;48.274;19.814;2023-05-07T06:37:42;5.80;;;5.22;;
61389;SDS011;47260;48.274;19.814;2023-05-07T06:39:20;7.53;;;6.72;;
61389;SDS011;47260;48.274;19.814;2023-05-07T06:40:51;6.00;;;5.40;;
61389;SDS011;47260;48.274;19.814;2023-05-07T06:42:25;6.15;;;5.50;;
61389;SDS011;47260;48.274;19.814;2023-05-07T06:44:02;6.00;;;5.50;;
61389;SDS011;47260;48.274;19.814;2023-05-07T06:45:43;6.88;;;6.05;;
61389;SDS011;47260;48.274;19.814;2023-05-07T06:47:15;5.25;;;4.75;;
61389;SDS011;47260;48.274;19.814;2023-05-07T06:48:50;6.30;;;5.80;;
61389;SDS011;47260;48.274;19.814;2023-05-07T06:50:23;7.57;;;6.80;;
61389;SDS011;47260;48.274;19.814;2023-05-07T06:51:59;5.72;;;4.82;;
61389;SDS011;47260;48.274;19.814;2023-05-07T06:53:31;6.40;;;5.40;;
61389;SDS011;47260;48.274;19.814;2023-05-07T06:55:05;6.15;;;5.40;;
61389;SDS011;47260;48.274;19.814;2023-05-07T06:56:37;6.22;;;5.63;;
61389;SDS011;47260;48.274;19.814;2023-05-07T06:58:09;6.47;;;5.88;;
61389;SDS011;47260;48.274;19.814;2023-05-07T06:59:42;6.05;;;5.45;;
61389;SDS011;47260;48.274;19.814;2023-05-07T07:01:14;6.45;;;5.85;;
61389;SDS011;47260;48.274;19.814;2023-05-07T07:02:48;6.10;;;5.50;;
61389;SDS011;47260;48.274;19.814;2023-05-07T07:04:23;6.50;;;5.97;;
61389;SDS011;47260;48.274;19.814;2023-05-07T07:06:03;6.35;;;5.78;;
61389;SDS011;47260;48.274;19.814;2023-05-07T07:07:34;6.20;;;5.30;;
61389;SDS011;47260;48.274;19.814;2023-05-07T07:09:06;7.28;;;5.35;;
61389;SDS011;47260;48.274;19.814;2023-05-07T07:10:38;5.93;;;5.32;;
61389;SDS011;47260;48.274;19.814;2023-05-07T07:12:10;6.43;;;5.80;;
61389;SDS011;47260;48.274;19.814;2023-05-07T07:13:45;6.32;;;5.72;;
61389;SDS011;47260;48.274;19.814;2023-05-07T07:15:16;5.78;;;5.28;;
61389;SDS011;47260;48.274;19.814;2023-05-07T07:16:49;5.80;;;5.20;;
61389;SDS011;47260;48.274;19.814;2023-05-07T07:18:22;6.00;;;5.50;;
61389;SDS011;47260;48.274;19.814;2023-05-07T07:19:56;6.07;;;5.47;;
61389;SDS011;47260;48.274;19.814;2023-05-07T07:21:28;6.18;;;5.15;;
61389;SDS011;47260;48.274;19.814;2023-05-07T07:23:00;4.82;;;4.30;;
61389;SDS011;47260;48.274;19.814;2023-05-07T07:24:32;6.93;;;4.78;;
61389;SDS011;47260;48.274;19.814;2023-05-07T07:26:08;5.10;;;4.68;;
61389;SDS011;47260;48.274;19.814;2023-05-07T07:27:39;5.03;;;4.53;;
61389;SDS011;47260;48.274;19.814;2023-05-07T07:29:12;4.63;;;4.22;;
61389;SDS011;47260;48.274;19.814;2023-05-07T07:30:46;5.22;;;4.72;;
61389;SDS011;47260;48.274;19.814;2023-05-07T07:32:19;5.03;;;4.10;;
61389;SDS011;47260;48.274;19.814;2023-05-07T07:33:51;5.18;;;4.43;;
61389;SDS011;47260;48.274;19.814;2023-05-07T07:35:24;4.95;;;4.38;;
61389;SDS011;47260;48.274;19.814;2023-05-07T07:36:55;4.68;;;4.28;;
61389;SDS011;47260;48.274;19.814;2023-05-07T07:38:28;4.70;;;4.30;;
61389;SDS011;47260;48.274;19.814;2023-05-07T07:39:59;4.55;;;4.15;;
61389;SDS011;47260;48.274;19.814;2023-05-07T07:41:32;4.30;;;3.90;;
61389;SDS011;47260;48.274;19.814;2023-05-07T07:43:03;4.78;;;3.63;;
61389;SDS011;47260;48.274;19.814;2023-05-07T07:44:37;4.15;;;3.55;;
61389;SDS011;47260;48.274;19.814;2023-05-07T07:46:12;3.80;;;3.50;;
61389;SDS011;47260;48.274;19.814;2023-05-07T07:47:44;3.90;;;3.55;;
61389;SDS011;47260;48.274;19.814;2023-05-07T07:49:16;4.68;;;3.35;;
61389;SDS011;47260;48.274;19.814;2023-05-07T07:50:50;7.47;;;3.35;;
61389;SDS011;47260;48.274;19.814;2023-05-07T07:52:23;3.92;;;3.53;;
61389;SDS011;47260;48.274;19.814;2023-05-07T07:53:54;4.18;;;3.78;;
61389;SDS011;47260;48.274;19.814;2023-05-07T07:55:27;8.18;;;7.25;;
61389;SDS011;47260;48.274;19.814;2023-05-07T07:57:01;4.35;;;3.65;;
61389;SDS011;47260;48.274;19.814;2023-05-07T07:58:35;3.50;;;3.20;;
61389;SDS011;47260;48.274;19.814;2023-05-07T08:00:08;3.55;;;3.22;;
61389;SDS011;47260;48.274;19.814;2023-05-07T08:01:46;3.53;;;3.22;;
61389;SDS011;47260;48.274;19.814;2023-05-07T08:03:21;3.65;;;3.35;;
61389;SDS011;47260;48.274;19.814;2023-05-07T08:04:56;3.63;;;3.33;;
61389;SDS011;47260;48.274;19.814;2023-05-07T08:06:29;4.47;;;3.38;;
61389;SDS011;47260;48.274;19.814;2023-05-07T08:08:01;3.65;;;3.13;;
61389;SDS011;47260;48.274;19.814;2023-05-07T08:09:36;5.72;;;3.70;;
61389;SDS011;47260;48.274;19.814;2023-05-07T08:11:09;5.80;;;2.95;;
61389;SDS011;47260;48.274;19.814;2023-05-07T08:12:41;3.20;;;2.95;;
61389;SDS011;47260;48.274;19.814;2023-05-07T08:14:13;4.05;;;2.67;;
61389;SDS011;47260;48.274;19.814;2023-05-07T08:15:47;3.28;;;2.60;;
61389;SDS011;47260;48.274;19.814;2023-05-07T08:17:19;2.63;;;2.35;;
61389;SDS011;47260;48.274;19.814;2023-05-07T08:18:53;3.10;;;2.85;;
61389;SDS011;47260;48.274;19.814;2023-05-07T08:20:25;2.63;;;2.38;;
61389;SDS011;47260;48.274;19.814;2023-05-07T08:21:58;2.55;;;2.35;;
61389;SDS011;47260;48.274;19.814;2023-05-07T08:23:30;3.17;;;2.03;;
61389;SDS011;47260;48.274;19.814;2023-05-07T08:25:02;2.25;;;2.00;;
61389;SDS011;47260;48.274;19.814;2023-05-07T08:26:35;2.22;;;1.77;;
61389;SDS011;47260;48.274;19.814;2023-05-07T08:28:10;3.72;;;2.08;;
61389;SDS011;47260;48.274;19.814;2023-05-07T08:29:42;2.20;;;2.00;;
61389;SDS011;47260;48.274;19.814;2023-05-07T08:31:18;2.50;;;2.10;;
61389;SDS011;47260;48.274;19.814;2023-05-07T08:32:51;2.08;;;1.98;;
61389;SDS011;47260;48.274;19.814;2023-05-07T08:34:22;2.47;;;1.80;;
61389;SDS011;47260;48.274;19.814;2023-05-07T08:35:56;1.98;;;1.85;;
61389;SDS011;47260;48.274;19.814;2023-05-07T08:37:30;1.80;;;1.70;;
61389;SDS011;47260;48.274;19.814;2023-05-07T08:39:02;2.50;;;2.10;;
61389;SDS011;47260;48.274;19.814;2023-05-07T08:40:36;3.13;;;2.30;;
61389;SDS011;47260;48.274;19.814;2023-05-07T08:42:11;2.33;;;2.13;;
61389;SDS011;47260;48.274;19.814;2023-05-07T08:43:45;2.67;;;2.47;;
61389;SDS011;47260;48.274;19.814;2023-05-07T08:45:19;2.30;;;2.00;;
61389;SDS011;47260;48.274;19.814;2023-05-07T08:46:53;2.53;;;2.20;;
61389;SDS011;47260;48.274;19.814;2023-05-07T08:48:29;3.45;;;2.05;;
61389;SDS011;47260;48.274;19.814;2023-05-07T08:50:09;2.30;;;2.10;;
61389;SDS011;47260;48.274;19.814;2023-05-07T08:51:41;5.13;;;1.95;;
61389;SDS011;47260;48.274;19.814;2023-05-07T08:53:15;1.85;;;1.75;;
61389;SDS011;47260;48.274;19.814;2023-05-07T08:54:48;4.68;;;3.90;;
61389;SDS011;47260;48.274;19.814;2023-05-07T08:56:20;3.60;;;2.35;;
61389;SDS011;47260;48.274;19.814;2023-05-07T08:57:52;3.25;;;2.33;;
61389;SDS011;47260;48.274;19.814;2023-05-07T08:59:25;1.67;;;1.58;;
61389;SDS011;47260;48.274;19.814;2023-05-07T09:00:57;1.85;;;1.40;;
61389;SDS011;47260;48.274;19.814;2023-05-07T09:02:30;5.20;;;1.75;;
61389;SDS011;47260;48.274;19.814;2023-05-07T09:04:02;1.88;;;1.75;;
61389;SDS011;47260;48.274;19.814;2023-05-07T09:05:34;2.08;;;1.60;;
61389;SDS011;47260;48.274;19.814;2023-05-07T09:07:07;1.48;;;1.38;;
61389;SDS011;47260;48.274;19.814;2023-05-07T09:08:46;1.33;;;1.23;;
61389;SDS011;47260;48.274;19.814;2023-05-07T09:10:21;2.22;;;1.40;;